Time;durP1;ratioP1;P1;durP2;ratioP2;P2;SDS_P1;SDS_P2;PMS_P1;PMS_P2;Temp;Humidity;BMP_temperature;BMP_pressure;BME280_temperature;BME280_humidity;BME280_pressure;Samples;Min_cycle;Max_cycle;Signal;HPM_P1;HPM_P2
2022/06/17 00:01:26;;;;;;;1.40;0.50;;;;;;;27.62;46.51;100781.91;4991747;28;20446;-72
2022/06/17 00:03:52;;;;;;;1.08;0.60;;;;;;;27.63;46.29;100788.88;4989906;28;20120;-72
2022/06/17 00:06:22;;;;;;;2.63;0.57;;;;;;;27.64;46.50;100788.63;4991743;28;20552;-73
2022/06/17 00:08:52;;;;;;;1.08;0.40;;;;;;;27.63;46.55;100789.69;4988406;28;20028;-72
2022/06/17 00:11:21;;;;;;;1.23;0.40;;;;;;;27.64;46.31;100793.19;4989371;28;20061;-71
2022/06/17 00:13:47;;;;;;;1.83;0.60;;;;;;;27.63;46.29;100786.22;4990155;28;20121;-72
2022/06/17 00:16:14;;;;;;;2.08;0.77;;;;;;;27.64;46.29;100785.97;4988392;28;20561;-73
2022/06/17 00:18:41;;;;;;;1.85;0.70;;;;;;;27.64;46.71;100787.84;4985007;28;20178;-73
2022/06/17 00:21:15;;;;;;;2.33;0.68;;;;;;;27.64;46.42;100793.19;4990197;28;20532;-71
2022/06/17 00:23:41;;;;;;;0.70;0.50;;;;;;;27.64;46.62;100790.50;4990184;28;20564;-73
2022/06/17 00:26:08;;;;;;;2.17;0.77;;;;;;;27.64;46.43;100790.50;4988258;28;20026;-72
2022/06/17 00:28:33;;;;;;;1.23;0.70;;;;;;;27.65;46.52;100789.44;4991299;28;20328;-72
2022/06/17 00:30:59;;;;;;;1.20;0.60;;;;;;;27.65;46.32;100794.81;4990282;28;20037;-72
2022/06/17 00:33:24;;;;;;;1.98;0.50;;;;;;;27.66;46.47;100794.56;4989543;28;20224;-72
2022/06/17 00:35:53;;;;;;;1.55;0.60;;;;;;;27.67;46.49;100793.50;4990414;28;20463;-72
2022/06/17 00:38:38;;;;;;;2.80;0.60;;;;;;;27.66;46.46;100791.06;4990065;28;20054;-72
2022/06/17 00:41:15;;;;;;;1.48;0.57;;;;;;;27.68;46.40;100791.63;4990401;28;20414;-72
2022/06/17 00:43:43;;;;;;;1.52;0.50;;;;;;;27.68;46.74;100794.31;4986469;28;20037;-72
2022/06/17 00:46:27;;;;;;;1.95;0.60;;;;;;;27.66;46.37;100788.38;4987902;28;20064;-72
2022/06/17 00:49:13;;;;;;;1.55;0.60;;;;;;;27.67;46.25;100796.16;4988917;28;20030;-72
2022/06/17 00:51:45;;;;;;;1.55;0.50;;;;;;;27.66;46.29;100797.22;4971270;28;20509;-72
2022/06/17 00:54:22;;;;;;;1.50;0.63;;;;;;;27.67;46.40;100790.00;4972993;28;20042;-72
2022/06/17 00:56:48;;;;;;;1.40;0.50;;;;;;;27.67;46.29;100787.34;4973316;28;20061;-72
2022/06/17 00:59:14;;;;;;;3.13;0.43;;;;;;;27.66;46.39;100786.53;4990614;28;20022;-72
2022/06/17 01:01:57;;;;;;;3.33;0.63;;;;;;;27.65;46.37;100781.41;4989634;28;20474;-72
2022/06/17 01:04:33;;;;;;;1.70;0.93;;;;;;;27.63;46.53;100781.66;4987683;28;20038;-72
2022/06/17 01:07:17;;;;;;;4.28;0.70;;;;;;;27.64;46.31;100780.59;4970835;28;20484;-72
2022/06/17 01:09:57;;;;;;;2.83;0.73;;;;;;;27.63;46.64;100779.00;4990271;28;20026;-71
2022/06/17 01:12:27;;;;;;;1.75;0.82;;;;;;;27.63;46.34;100775.50;4989010;28;20125;-71
2022/06/17 01:14:53;;;;;;;2.33;0.68;;;;;;;27.62;46.20;100765.84;4989224;28;20038;-72
2022/06/17 01:17:20;;;;;;;2.60;0.45;;;;;;;27.63;46.36;100764.81;4989201;28;20042;-71
2022/06/17 01:19:51;;;;;;;3.78;0.65;;;;;;;27.62;46.64;100764.00;4989623;28;20033;-72
2022/06/17 01:22:26;;;;;;;2.70;0.60;;;;;;;27.61;46.29;100769.59;4989134;28;20489;-72
2022/06/17 01:25:24;;;;;;;1.50;0.50;;;;;;;27.59;46.53;100769.03;4985064;28;20034;-72
2022/06/17 01:27:53;;;;;;;2.05;0.50;;;;;;;27.61;46.37;100758.88;4988134;28;20046;-72
2022/06/17 01:30:24;;;;;;;2.63;0.40;;;;;;;27.62;46.13;100758.63;4990394;28;20027;-72
2022/06/17 01:32:55;;;;;;;1.25;0.55;;;;;;;27.64;46.32;100753.03;4986308;28;20045;-72
2022/06/17 01:35:23;;;;;;;3.50;0.40;;;;;;;27.65;46.44;100751.97;4989617;28;20031;-72
2022/06/17 01:37:49;;;;;;;2.53;0.60;;;;;;;27.66;46.19;100750.91;4988996;28;20435;-73
2022/06/17 01:40:17;;;;;;;2.33;0.70;;;;;;;27.67;46.15;100742.63;4990062;28;20130;-73
2022/06/17 01:42:44;;;;;;;0.80;0.40;;;;;;;27.68;46.28;100751.47;4989685;28;20045;-72
2022/06/17 01:45:11;;;;;;;2.75;0.50;;;;;;;27.70;46.00;100765.41;4989492;28;20151;-72
2022/06/17 01:47:41;;;;;;;2.05;0.60;;;;;;;27.70;45.96;100752.03;4989002;28;20037;-72
2022/06/17 01:50:15;;;;;;;2.45;0.82;;;;;;;27.68;46.23;100754.16;4989393;28;20065;-73
2022/06/17 01:52:52;;;;;;;2.25;0.70;;;;;;;27.67;45.97;100768.59;4985050;28;20587;-72
2022/06/17 01:55:30;;;;;;;1.48;0.70;;;;;;;27.65;46.14;100760.00;4988379;28;20445;-72
2022/06/17 01:58:03;;;;;;;3.28;0.60;;;;;;;27.65;46.13;100766.16;4988641;28;20467;-73
2022/06/17 02:00:29;;;;;;;3.45;0.60;;;;;;;27.63;45.83;100768.28;4989565;28;20529;-72
2022/06/17 02:03:12;;;;;;;1.58;0.63;;;;;;;27.62;46.29;100774.69;4987196;28;20046;-72
2022/06/17 02:05:41;;;;;;;4.53;0.98;;;;;;;27.62;46.04;100780.06;4989143;28;20482;-73
2022/06/17 02:08:07;;;;;;;4.15;0.90;;;;;;;27.62;46.37;100771.22;4988489;28;20166;-72
2022/06/17 02:10:39;;;;;;;2.70;0.52;;;;;;;27.61;46.27;100769.59;4987959;28;20088;-73
2022/06/17 02:13:07;;;;;;;2.83;0.55;;;;;;;27.61;46.08;100770.41;4988145;28;20533;-72
2022/06/17 02:15:33;;;;;;;1.95;0.70;;;;;;;27.60;46.33;100768.78;4983995;28;20117;-72
2022/06/17 02:18:01;;;;;;;1.55;0.60;;;;;;;27.61;46.34;100774.94;4989350;28;20568;-72
2022/06/17 02:20:27;;;;;;;1.83;0.80;;;;;;;27.60;46.34;100773.31;4987519;28;20030;-72
2022/06/17 02:22:55;;;;;;;1.27;0.40;;;;;;;27.59;46.17;100771.72;4987848;28;20466;-72
2022/06/17 02:25:25;;;;;;;3.85;0.90;;;;;;;27.59;45.97;100769.03;4986445;28;20034;-72
2022/06/17 02:27:55;;;;;;;2.63;0.68;;;;;;;27.58;46.10;100757.50;4988430;28;20061;-72
2022/06/17 02:30:22;;;;;;;3.00;0.70;;;;;;;27.58;46.29;100751.31;4988461;28;20049;-72
2022/06/17 02:32:49;;;;;;;2.08;0.63;;;;;;;27.59;46.50;100750.31;4986945;28;20390;-72
2022/06/17 02:35:35;;;;;;;3.17;0.65;;;;;;;27.59;46.21;100745.75;4988057;28;20042;-72
2022/06/17 02:38:01;;;;;;;2.13;0.70;;;;;;;27.59;46.32;100745.75;4988060;28;20113;-72
2022/06/17 02:40:33;;;;;;;1.55;0.60;;;;;;;27.62;46.22;100744.44;4989165;28;20121;-72
2022/06/17 02:43:01;;;;;;;1.98;0.55;;;;;;;27.62;46.07;100745.25;4986380;28;20118;-72
2022/06/17 02:45:31;;;;;;;2.83;0.55;;;;;;;27.64;46.19;100750.38;4986982;28;20129;-73
2022/06/17 02:47:57;;;;;;;2.70;0.50;;;;;;;27.64;45.87;100755.72;4989120;28;20049;-72
2022/06/17 02:50:28;;;;;;;2.33;0.60;;;;;;;27.64;46.25;100759.19;4988120;28;20026;-72
2022/06/17 02:52:56;;;;;;;2.67;0.55;;;;;;;27.64;46.14;100761.88;4988035;28;20045;-72
2022/06/17 02:55:25;;;;;;;2.63;0.70;;;;;;;27.64;45.84;100753.03;4986894;28;20034;-72
2022/06/17 02:57:56;;;;;;;4.35;0.70;;;;;;;27.63;45.93;100762.13;4987951;28;20049;-71
2022/06/17 03:00:21;;;;;;;2.20;0.88;;;;;;;27.61;46.16;100765.06;4989661;28;20537;-71
2022/06/17 03:02:54;;;;;;;1.15;0.50;;;;;;;27.59;46.09;100759.13;4992264;28;20023;-72
2022/06/17 03:05:33;;;;;;;1.40;0.40;;;;;;;27.57;46.25;100763.09;4990946;28;20097;-71
2022/06/17 03:08:00;;;;;;;4.13;0.60;;;;;;;27.57;46.05;100768.44;4991298;28;20030;-71
2022/06/17 03:10:39;;;;;;;2.58;0.95;;;;;;;27.56;46.05;100777.53;4993037;28;20029;-73
2022/06/17 03:13:12;;;;;;;3.30;0.88;;;;;;;27.56;46.24;100774.84;4991989;28;20046;-72
2022/06/17 03:15:40;;;;;;;3.22;1.00;;;;;;;27.57;46.09;100781.81;4992434;28;20037;-72
2022/06/17 03:18:06;;;;;;;2.08;0.68;;;;;;;27.56;46.42;100774.84;4992377;28;20161;-72
2022/06/17 03:20:37;;;;;;;2.40;0.60;;;;;;;27.56;46.28;100778.34;4993488;28;20097;-72
2022/06/17 03:23:10;;;;;;;3.33;0.63;;;;;;;27.55;46.34;100782.06;4989882;28;20073;-72
2022/06/17 03:25:47;;;;;;;2.70;0.88;;;;;;;27.52;46.20;100782.56;4991714;28;20058;-72
2022/06/17 03:28:17;;;;;;;1.42;0.43;;;;;;;27.54;46.46;100774.28;4992474;28;20065;-72
2022/06/17 03:30:57;;;;;;;2.33;0.65;;;;;;;27.53;46.07;100775.34;4990763;28;20030;-72
2022/06/17 03:33:32;;;;;;;1.38;0.70;;;;;;;27.53;46.49;100778.84;4992286;28;20038;-72
2022/06/17 03:36:01;;;;;;;2.60;0.50;;;;;;;27.55;46.24;100786.63;5261197;22;20066;-72
2022/06/17 03:38:38;;;;;;;3.85;0.85;;;;;;;27.54;46.45;100779.66;4972578;28;20034;-72
2022/06/17 03:41:12;;;;;;;2.33;0.60;;;;;;;27.54;46.31;100785.00;4972626;28;20353;-72
2022/06/17 03:43:54;;;;;;;1.95;0.60;;;;;;;27.55;46.31;100791.97;4971647;28;20580;-72
2022/06/17 03:46:23;;;;;;;3.53;0.50;;;;;;;27.56;46.44;100789.03;4972789;28;20061;-72
2022/06/17 03:48:55;;;;;;;1.90;0.50;;;;;;;27.57;46.35;100781.81;4972744;28;20030;-71
2022/06/17 03:51:23;;;;;;;2.50;0.50;;;;;;;27.57;46.25;100789.84;4972593;28;20394;-71
2022/06/17 03:53:51;;;;;;;1.50;0.65;;;;;;;27.57;46.32;100779.94;4969460;28;20073;-71
2022/06/17 03:56:21;;;;;;;2.63;0.57;;;;;;;27.57;46.39;100793.34;4952908;28;20031;-71
2022/06/17 03:58:48;;;;;;;2.00;0.40;;;;;;;27.57;46.52;100782.63;4955583;28;20240;-72
2022/06/17 04:01:13;;;;;;;3.80;0.75;;;;;;;27.56;46.26;100786.38;4972215;28;20034;-72
2022/06/17 04:03:42;;;;;;;2.50;0.50;;;;;;;27.56;46.30;100777.53;4972298;28;20031;-71
2022/06/17 04:06:18;;;;;;;3.55;0.75;;;;;;;27.56;46.24;100780.19;4972467;28;20132;-72
2022/06/17 04:08:55;;;;;;;1.27;0.60;;;;;;;27.53;46.38;100783.38;4972115;28;20034;-72
2022/06/17 04:11:23;;;;;;;2.35;0.70;;;;;;;27.55;46.38;100783.94;4971995;28;20045;-72
2022/06/17 04:13:50;;;;;;;1.35;0.57;;;;;;;27.54;46.24;100790.34;4971102;28;20042;-72
2022/06/17 04:16:46;;;;;;;2.70;0.82;;;;;;;27.50;46.08;100790.03;4971745;28;20062;-72
2022/06/17 04:19:17;;;;;;;3.88;0.50;;;;;;;27.51;46.00;100796.19;4971849;28;20034;-72
2022/06/17 04:21:43;;;;;;;1.50;0.50;;;;;;;27.52;46.24;100797.81;4971725;28;20030;-72
2022/06/17 04:24:15;;;;;;;1.30;0.70;;;;;;;27.51;46.05;100802.34;4971712;28;20023;-72
2022/06/17 04:26:44;;;;;;;2.10;0.55;;;;;;;27.52;46.25;100797.81;4972100;28;20364;-72
2022/06/17 04:29:18;;;;;;;2.72;0.57;;;;;;;27.52;46.26;100803.97;4971824;28;20039;-72
2022/06/17 04:31:49;;;;;;;1.80;0.40;;;;;;;27.52;45.94;100813.88;4971566;28;20031;-72
2022/06/17 04:34:17;;;;;;;2.88;0.50;;;;;;;27.51;46.28;100801.53;4971484;28;20149;-71
2022/06/17 04:36:50;;;;;;;1.70;0.45;;;;;;;27.52;46.05;100800.50;4984230;28;20046;-71
2022/06/17 04:39:28;;;;;;;3.05;0.70;;;;;;;27.51;45.92;100804.22;4990850;28;20387;-72
2022/06/17 04:41:57;;;;;;;2.95;0.47;;;;;;;27.51;45.94;100807.72;4990808;28;20030;-72
2022/06/17 04:44:23;;;;;;;3.53;0.60;;;;;;;27.53;46.02;100805.59;4990670;28;20019;-72
2022/06/17 04:46:54;;;;;;;1.08;0.50;;;;;;;27.54;45.79;100812.56;4990724;28;20030;-72
2022/06/17 04:49:23;;;;;;;2.15;0.40;;;;;;;27.56;46.06;100817.66;4990680;28;20500;-72
2022/06/17 04:51:53;;;;;;;2.78;0.80;;;;;;;27.55;45.90;100813.38;4990336;28;20402;-72
2022/06/17 04:54:19;;;;;;;1.38;0.50;;;;;;;27.55;45.90;100813.38;4990355;28;20505;-72
2022/06/17 04:56:49;;;;;;;1.58;0.60;;;;;;;27.56;45.54;100809.63;4990571;28;20030;-72
2022/06/17 04:59:28;;;;;;;1.85;0.60;;;;;;;27.54;45.58;100803.72;4990398;28;20422;-72
2022/06/17 05:01:54;;;;;;;1.77;0.52;;;;;;;27.53;45.58;100794.06;4977821;28;20027;-71
2022/06/17 05:04:20;;;;;;;1.73;0.77;;;;;;;27.53;45.63;100797.56;4970912;28;20386;-72
2022/06/17 05:06:45;;;;;;;2.03;0.60;;;;;;;27.52;45.80;100795.94;4973639;28;20023;-72
2022/06/17 05:09:34;;;;;;;4.10;0.73;;;;;;;27.49;45.80;100793.75;4990582;28;20082;-71
2022/06/17 05:12:04;;;;;;;2.17;0.70;;;;;;;27.51;45.70;100797.00;4990346;28;20030;-72
2022/06/17 05:14:53;;;;;;;2.17;0.65;;;;;;;27.48;45.57;100786.78;4989992;28;20042;-72
2022/06/17 05:17:20;;;;;;;3.53;0.77;;;;;;;27.49;45.80;100793.75;4990006;28;20046;-71
2022/06/17 05:19:48;;;;;;;0.98;0.50;;;;;;;27.49;45.94;100787.59;4989922;28;20030;-72
2022/06/17 05:22:20;;;;;;;3.25;0.70;;;;;;;27.49;45.88;100787.59;4990045;28;20061;-71
2022/06/17 05:24:45;;;;;;;1.77;0.70;;;;;;;27.48;45.85;100786.78;4989615;28;20125;-71
2022/06/17 05:27:11;;;;;;;2.53;0.60;;;;;;;27.49;45.80;100790.28;4986039;28;20543;-72
2022/06/17 05:29:36;;;;;;;5.47;0.50;;;;;;;27.48;45.83;100794.81;4974980;28;20365;-71
2022/06/17 05:32:02;;;;;;;2.78;0.57;;;;;;;27.49;45.97;100792.97;4972308;28;20045;-71
2022/06/17 05:34:27;;;;;;;1.23;0.65;;;;;;;27.48;46.06;100802.84;4989410;28;20030;-72
2022/06/17 05:36:56;;;;;;;1.83;0.70;;;;;;;27.49;46.04;100809.00;4989493;28;20042;-72
2022/06/17 05:39:22;;;;;;;2.72;0.75;;;;;;;27.49;45.85;100809.81;4989540;28;20018;-71
2022/06/17 05:41:47;;;;;;;2.58;0.70;;;;;;;27.49;46.09;100817.03;4989671;28;20100;-72
2022/06/17 05:44:14;;;;;;;2.83;0.90;;;;;;;27.50;45.70;100818.66;4989559;28;20032;-71
2022/06/17 05:46:39;;;;;;;1.83;0.77;;;;;;;27.49;46.24;100830.41;4989762;28;20041;-72
2022/06/17 05:49:05;;;;;;;2.67;0.70;;;;;;;27.49;45.96;100819.72;4989293;28;20398;-72
2022/06/17 05:51:31;;;;;;;3.25;0.68;;;;;;;27.49;45.96;100828.56;4989464;28;20038;-72
2022/06/17 05:53:56;;;;;;;2.78;0.90;;;;;;;27.49;45.86;100825.06;4989499;28;20464;-72
2022/06/17 05:56:22;;;;;;;2.75;0.82;;;;;;;27.49;46.07;100839.25;4988768;28;20101;-72
2022/06/17 05:58:47;;;;;;;5.43;1.13;;;;;;;27.49;46.20;100841.94;4988792;28;20030;-72
2022/06/17 06:01:13;;;;;;;4.90;0.80;;;;;;;27.49;46.22;100849.97;4987555;28;20026;-71
2022/06/17 06:03:38;;;;;;;2.83;0.90;;;;;;;27.50;46.09;100856.94;4984031;28;20034;-72
2022/06/17 06:06:04;;;;;;;2.70;0.93;;;;;;;27.50;46.20;100861.47;4979133;28;20450;-72
2022/06/17 06:08:29;;;;;;;4.18;0.65;;;;;;;27.50;46.18;100854.25;4976424;28;20117;-73
2022/06/17 06:10:54;;;;;;;2.92;1.00;;;;;;;27.48;46.51;100860.91;4989116;28;20026;-72
2022/06/17 06:13:22;;;;;;;4.40;1.50;;;;;;;27.51;47.33;100860.41;4980264;28;20058;-71
2022/06/17 06:15:50;;;;;;;6.07;1.60;;;;;;;27.59;48.32;100863.50;4980733;28;20026;-72
2022/06/17 06:18:27;;;;;;;9.82;2.45;;;;;;;27.66;49.12;100864.16;4971969;28;20039;-73
2022/06/17 06:20:53;;;;;;;9.93;1.55;;;;;;;27.66;48.85;100863.34;4969559;28;20027;-73
2022/06/17 06:23:18;;;;;;;9.10;1.05;;;;;;;27.62;48.65;100865.69;4969620;28;20390;-73
2022/06/17 06:25:44;;;;;;;4.35;1.85;;;;;;;27.66;49.39;100872.19;4979805;28;20382;-73
2022/06/17 06:28:16;;;;;;;7.60;3.47;;;;;;;27.74;48.83;100878.97;4988841;28;20038;-72
2022/06/17 06:30:42;;;;;;;4.78;1.20;;;;;;;27.75;47.95;100877.91;4989144;28;20105;-73
2022/06/17 06:33:09;;;;;;;4.32;1.15;;;;;;;27.74;48.30;100885.13;4988710;28;20117;-73
2022/06/17 06:35:37;;;;;;;10.10;1.02;;;;;;;27.74;47.80;100878.97;4988213;28;20046;-73
2022/06/17 06:38:04;;;;;;;5.90;0.68;;;;;;;27.71;47.52;100874.13;4988380;28;20342;-72
2022/06/17 06:40:30;;;;;;;5.22;0.90;;;;;;;27.68;47.63;100877.28;4988713;28;20158;-72
2022/06/17 06:42:56;;;;;;;4.15;1.10;;;;;;;27.64;47.40;100873.47;4988722;28;20498;-72
2022/06/17 06:45:26;;;;;;;3.78;0.95;;;;;;;27.57;47.36;100872.81;4987713;28;20030;-73
2022/06/17 06:47:54;;;;;;;2.97;0.80;;;;;;;27.46;47.16;100860.34;4983445;22;20058;-73
2022/06/17 06:50:24;;;;;;;2.08;0.77;;;;;;;27.39;47.26;100871.25;4967490;28;20094;-73
2022/06/17 06:52:50;;;;;;;3.20;0.60;;;;;;;27.33;47.00;100870.34;4955459;28;20035;-74
2022/06/17 06:55:16;;;;;;;1.85;0.52;;;;;;;27.35;47.14;100872.78;4962964;28;20039;-73
2022/06/17 06:57:56;;;;;;;3.20;0.70;;;;;;;27.35;47.40;100872.78;4963902;28;20038;-73
2022/06/17 07:00:26;;;;;;;3.15;0.70;;;;;;;27.36;47.36;100869.88;4965499;28;20559;-73
2022/06/17 07:02:52;;;;;;;2.33;0.80;;;;;;;27.35;47.22;100873.59;4965589;28;20676;-73
2022/06/17 07:05:18;;;;;;;4.38;0.70;;;;;;;27.33;47.39;100885.59;4965381;28;20023;-73
2022/06/17 07:07:44;;;;;;;1.13;0.60;;;;;;;27.35;47.68;100878.94;4960124;28;20070;-73
2022/06/17 07:10:13;;;;;;;2.70;0.70;;;;;;;27.33;47.53;100880.25;4958567;28;20058;-74
2022/06/17 07:12:39;;;;;;;2.50;0.85;;;;;;;27.33;47.63;100882.94;4960773;28;20031;-73
2022/06/17 07:15:05;;;;;;;1.88;0.60;;;;;;;27.32;47.45;100884.78;4960276;28;20090;-74
2022/06/17 07:17:31;;;;;;;17.30;4.40;;;;;;;27.36;47.69;100883.25;4954297;28;20043;-74
2022/06/17 07:19:56;;;;;;;418.13;90.60;;;;;;;27.39;48.02;100882.75;4963549;28;20397;-74
2022/06/17 07:22:22;;;;;;;101.70;23.85;;;;;;;27.40;48.20;100887.06;4958820;28;20038;-74
2022/06/17 07:24:48;;;;;;;33.22;7.35;;;;;;;27.46;49.87;100889.78;4962268;28;20125;-75
2022/06/17 07:27:13;;;;;;;6.95;2.13;;;;;;;27.44;49.29;100896.19;4966931;28;20494;-73
2022/06/17 07:29:39;;;;;;;6.90;1.55;;;;;;;27.34;48.88;100898.72;4959467;28;20035;-74
2022/06/17 07:32:04;;;;;;;6.30;1.20;;;;;;;27.22;48.78;100895.31;4957555;28;20525;-74
2022/06/17 07:34:30;;;;;;;5.55;1.33;;;;;;;27.13;49.96;100891.44;4953401;28;20126;-73
2022/06/17 07:39:54;;;;;;;12.90;4.68;;;;;;;27.33;50.82;100885.59;4950125;28;20082;-74
2022/06/17 07:42:25;;;;;;;20.83;6.60;;;;;;;27.53;50.93;100896.56;4955200;28;20039;-75
2022/06/17 07:44:52;;;;;;;123.90;52.30;;;;;;;27.59;50.08;100889.47;4956691;28;20031;-75
2022/06/17 07:47:21;;;;;;;21.73;8.82;;;;;;;27.54;49.07;100892.03;4955662;28;20093;-76
2022/06/17 07:49:46;;;;;;;6.88;3.10;;;;;;;27.44;48.31;100877.44;4971334;28;20026;-75
2022/06/17 07:52:12;;;;;;;3.78;0.88;;;;;;;27.36;48.05;100869.88;4971102;28;20452;-75
2022/06/17 07:54:38;;;;;;;3.50;0.50;;;;;;;27.35;47.86;100865.56;4972289;28;20046;-75
2022/06/17 07:57:04;;;;;;;3.15;0.90;;;;;;;27.32;47.77;100866.06;4972572;28;20410;-74
2022/06/17 07:59:29;;;;;;;2.20;0.80;;;;;;;27.31;47.74;100861.78;4972536;28;20035;-74
2022/06/17 08:01:55;;;;;;;3.42;0.68;;;;;;;27.35;47.51;100862.91;4971052;28;20034;-74
2022/06/17 08:04:20;;;;;;;2.78;0.80;;;;;;;27.37;47.61;100860.78;4971259;28;20037;-75
2022/06/17 08:06:51;;;;;;;3.67;0.73;;;;;;;27.36;47.68;100866.38;4971270;28;20039;-75
2022/06/17 08:09:20;;;;;;;2.83;0.68;;;;;;;27.36;47.46;100863.72;4972249;28;20658;-76
2022/06/17 08:11:48;;;;;;;2.78;0.85;;;;;;;27.39;47.61;100861.34;4972407;28;20057;-74
2022/06/17 08:14:14;;;;;;;3.60;0.50;;;;;;;27.40;47.58;100862.97;4971068;28;20458;-75
2022/06/17 08:16:39;;;;;;;3.92;0.80;;;;;;;27.40;47.53;100859.50;4971875;28;20034;-75
2022/06/17 08:19:07;;;;;;;2.13;0.88;;;;;;;27.40;47.71;100854.13;4971657;28;20501;-75
2022/06/17 08:21:33;;;;;;;10.90;1.23;;;;;;;27.39;47.94;100858.69;4969910;28;20113;-75
2022/06/17 08:23:59;;;;;;;6.82;1.05;;;;;;;27.42;47.66;100852.81;4969963;28;20471;-75
2022/06/17 08:26:24;;;;;;;3.60;1.08;;;;;;;27.43;47.72;100854.44;4970467;28;20027;-74
2022/06/17 08:28:50;;;;;;;3.00;1.05;;;;;;;27.43;47.73;100851.75;4969772;28;20035;-74
2022/06/17 08:31:15;;;;;;;5.72;1.23;;;;;;;27.43;47.60;100854.44;4969823;28;20685;-75
2022/06/17 08:33:41;;;;;;;3.60;0.57;;;;;;;27.43;47.14;100867.00;4968974;28;20081;-74
2022/06/17 08:36:19;;;;;;;4.47;1.08;;;;;;;27.42;47.18;100858.16;4970627;28;20489;-74
2022/06/17 08:38:51;;;;;;;3.42;0.90;;;;;;;27.44;46.80;100850.69;4970188;28;20542;-75
2022/06/17 08:41:45;;;;;;;3.33;0.85;;;;;;;27.44;46.89;100848.03;4966730;28;20030;-74
2022/06/17 08:44:45;;;;;;;3.55;0.93;;;;;;;27.46;46.35;100857.66;4962635;28;20534;-75
2022/06/17 08:47:48;;;;;;;2.70;0.65;;;;;;;27.44;45.12;100865.94;4965714;28;20050;-74
2022/06/17 08:51:04;;;;;;;5.20;0.80;;;;;;;27.42;44.12;100863.50;4967186;28;20514;-77
2022/06/17 08:53:53;;;;;;;2.55;0.68;;;;;;;27.44;43.97;100866.75;4934878;29;20111;-75
2022/06/17 08:56:30;;;;;;;1.00;0.68;;;;;;;27.47;44.00;100856.59;4949142;29;20043;-73
2022/06/17 08:59:13;;;;;;;5.18;1.00;;;;;;;27.49;43.59;100859.84;4948583;28;20101;-76
2022/06/17 09:02:00;;;;;;;5.82;1.15;;;;;;;27.51;43.42;100861.22;4948110;29;20055;-76
2022/06/17 09:04:51;;;;;;;3.95;0.70;;;;;;;27.51;42.76;100861.22;4949043;29;20238;-74
2022/06/17 09:07:47;;;;;;;2.72;0.55;;;;;;;27.52;42.70;100867.38;4948166;29;20138;-75
2022/06/17 09:10:30;;;;;;;2.28;0.60;;;;;;;27.53;42.37;100867.16;4949298;29;20039;-74
2022/06/17 09:13:00;;;;;;;2.08;0.70;;;;;;;27.54;42.14;100860.72;4947983;29;20082;-76
2022/06/17 09:15:26;;;;;;;4.22;0.93;;;;;;;27.56;41.85;100861.28;4949004;29;20046;-76
2022/06/17 09:18:05;;;;;;;2.20;0.50;;;;;;;27.56;41.26;100863.16;4949171;29;20480;-77
2022/06/17 09:20:36;;;;;;;6.03;0.65;;;;;;;27.58;41.24;100855.69;4948828;29;20141;-73
2022/06/17 09:23:05;;;;;;;2.47;0.60;;;;;;;27.62;40.78;100855.00;4948033;29;20047;-76
2022/06/17 09:25:53;;;;;;;1.05;0.45;;;;;;;27.64;40.64;100854.75;4948897;29;20124;-76
2022/06/17 09:28:34;;;;;;;2.42;0.50;;;;;;;27.65;40.52;100845.66;4968877;28;20054;-73
2022/06/17 09:31:10;;;;;;;2.72;0.60;;;;;;;27.66;40.02;100852.63;4971006;28;20253;-76
2022/06/17 09:33:43;;;;;;;3.33;0.70;;;;;;;27.68;39.56;100851.31;4970240;28;20454;-74
2022/06/17 09:36:20;;;;;;;7.65;0.80;;;;;;;27.69;38.75;100854.81;4969751;28;20027;-74
2022/06/17 09:38:58;;;;;;;1.90;0.60;;;;;;;27.72;38.76;100857.00;4970299;28;20043;-74
2022/06/17 09:41:40;;;;;;;3.22;0.60;;;;;;;27.71;38.69;100850.03;4970408;28;20042;-73
2022/06/17 09:44:14;;;;;;;2.47;0.70;;;;;;;27.70;38.30;100848.41;4969255;28;20077;-77
2022/06/17 09:46:52;;;;;;;3.25;0.77;;;;;;;27.69;38.03;100854.81;4970212;28;20051;-74
2022/06/17 09:49:24;;;;;;;3.65;0.75;;;;;;;27.71;38.29;100860.72;4970649;28;20360;-76
2022/06/17 09:52:05;;;;;;;4.10;0.77;;;;;;;27.71;38.33;100855.38;4964784;28;20039;-75
2022/06/17 09:54:30;;;;;;;3.25;0.70;;;;;;;27.72;38.20;100848.97;4951791;28;20090;-75
2022/06/17 09:57:05;;;;;;;1.77;0.60;;;;;;;27.72;38.27;100860.47;4969748;28;20038;-74
2022/06/17 09:59:38;;;;;;;2.05;0.70;;;;;;;27.74;37.46;100852.19;4970437;28;20026;-75
2022/06/17 10:02:30;;;;;;;2.25;0.50;;;;;;;27.76;36.85;100855.44;4970006;28;20491;-75
2022/06/17 10:04:58;;;;;;;3.35;0.70;;;;;;;27.79;37.02;100857.63;4964385;28;20121;-77
2022/06/17 10:07:58;;;;;;;2.20;0.63;;;;;;;27.79;36.08;100862.97;4967995;28;20524;-74
2022/06/17 10:10:41;;;;;;;2.80;0.50;;;;;;;27.80;36.33;100856.56;4908951;29;20471;-76
2022/06/17 10:13:12;;;;;;;1.33;0.68;;;;;;;27.83;36.07;100864.09;4909879;29;20044;-73
2022/06/17 10:18:31;;;;;;;1.48;0.60;;;;;;;27.85;36.19;100856.63;4909765;29;20044;-75
2022/06/17 10:18:43;;;;;;;1.40;0.60;;;;;;;27.86;36.56;100858.25;4908644;29;20132;-74
2022/06/17 10:21:22;;;;;;;0.93;0.50;;;;;;;27.90;36.48;100859.34;4909144;29;20099;-74
2022/06/17 10:24:09;;;;;;;3.83;0.73;;;;;;;27.92;36.34;100859.09;4909717;29;20055;-75
2022/06/17 10:27:08;;;;;;;2.30;0.57;;;;;;;27.93;36.20;100855.34;4909262;29;20618;-75
2022/06/17 10:29:52;;;;;;;1.50;0.55;;;;;;;27.96;36.26;100849.50;4909775;29;20043;-75
2022/06/17 10:32:17;;;;;;;4.30;0.80;;;;;;;27.96;36.54;100847.63;4909358;29;20048;-73
2022/06/17 10:34:52;;;;;;;2.97;0.60;;;;;;;27.98;36.39;100845.53;4911649;29;20038;-74
2022/06/17 10:37:17;;;;;;;3.33;0.63;;;;;;;28.03;36.18;100845.56;4908914;29;20490;-75
2022/06/17 10:39:44;;;;;;;7.95;0.70;;;;;;;28.06;36.10;100842.41;4907974;29;20051;-74
2022/06/17 10:42:16;;;;;;;2.42;0.70;;;;;;;28.08;36.42;100847.50;4915367;29;20044;-75
2022/06/17 10:44:46;;;;;;;2.72;1.05;;;;;;;28.08;36.01;100836.78;4912317;29;20048;-75
2022/06/17 10:47:11;;;;;;;3.35;0.73;;;;;;;28.07;36.11;100838.66;4956071;28;20556;-75
2022/06/17 10:49:42;;;;;;;5.20;0.60;;;;;;;28.09;36.05;100835.75;4966038;28;20122;-75
2022/06/17 10:52:19;;;;;;;3.72;0.80;;;;;;;28.08;35.93;100832.25;4957471;28;20035;-75
2022/06/17 10:54:48;;;;;;;2.08;0.50;;;;;;;28.11;36.20;100828.25;4965075;28;20030;-75
2022/06/17 10:57:26;;;;;;;1.70;0.50;;;;;;;28.14;35.45;100832.31;4957319;28;20036;-75
2022/06/17 10:59:52;;;;;;;1.13;0.60;;;;;;;28.16;35.84;100835.53;4960786;28;20042;-74
2022/06/17 11:02:20;;;;;;;2.33;0.80;;;;;;;28.12;36.18;100834.44;4975424;28;20030;-75
2022/06/17 11:04:57;;;;;;;4.20;0.80;;;;;;;28.12;36.21;100827.19;4984683;28;20544;-74
2022/06/17 11:07:39;;;;;;;1.73;0.60;;;;;;;28.12;35.52;100831.75;4976663;28;20081;-75
2022/06/17 11:10:14;;;;;;;5.30;0.70;;;;;;;28.32;37.06;100824.78;4962378;28;20043;-76
2022/06/17 11:12:55;;;;;;;1.73;0.75;;;;;;;28.70;36.95;100820.28;4968203;28;20035;-75
2022/06/17 11:15:27;;;;;;;2.70;0.70;;;;;;;29.06;35.76;100824.84;4960795;28;20030;-75
2022/06/17 11:17:57;;;;;;;26.45;2.92;;;;;;;29.08;39.20;100831.84;4967104;28;20109;-75
2022/06/17 11:20:27;;;;;;;8.57;1.05;;;;;;;29.23;42.97;100831.94;4966303;28;20042;-74
2022/06/17 11:22:55;;;;;;;6.03;1.15;;;;;;;29.56;44.73;100833.47;4968434;28;20081;-74
2022/06/17 11:25:36;;;;;;;4.28;1.00;;;;;;;29.79;43.95;100832.22;4972809;28;20066;-77
2022/06/17 11:28:33;;;;;;;4.05;0.90;;;;;;;29.98;44.09;100828.81;4967670;28;20226;-76
2022/06/17 11:31:04;;;;;;;3.40;1.55;;;;;;;30.00;43.71;100837.44;4971964;28;20045;-74
2022/06/17 11:33:33;;;;;;;4.07;0.80;;;;;;;29.71;38.58;100825.50;4971371;28;20038;-76
2022/06/17 11:36:09;;;;;;;2.90;0.77;;;;;;;29.42;36.71;100821.59;4969359;28;20054;-75
2022/06/17 11:38:35;;;;;;;1.65;0.60;;;;;;;29.24;36.81;100818.28;4970371;28;20517;-75
2022/06/17 11:41:01;;;;;;;3.42;0.90;;;;;;;29.16;36.56;100813.38;4970125;28;20031;-76
2022/06/17 11:43:43;;;;;;;4.30;0.70;;;;;;;29.07;36.27;100828.34;4970326;28;20464;-75
2022/06/17 11:46:13;;;;;;;3.38;0.70;;;;;;;29.00;35.86;100820.53;4966511;28;20051;-73
2022/06/17 11:48:42;;;;;;;2.45;0.68;;;;;;;28.98;36.21;100811.91;4961660;28;20471;-73